createdAt,value
2018-09-12T00:00:02.166Z,15.21
2018-09-12T00:01:02.202Z,15.17
2018-09-12T00:02:02.199Z,15.15
2018-09-12T00:03:02.080Z,15.15
2018-09-12T00:04:02.191Z,15.13
2018-09-12T00:05:02.094Z,15.11
2018-09-12T00:06:02.088Z,15.07
2018-09-12T00:07:02.134Z,15.03
2018-09-12T00:08:02.142Z,14.96
2018-09-12T00:09:02.121Z,14.96
2018-09-12T00:10:02.160Z,14.94
2018-09-12T00:11:02.163Z,14.94
2018-09-12T00:12:02.100Z,14.91
2018-09-12T00:13:02.091Z,14.87
2018-09-12T00:14:02.121Z,14.83
2018-09-12T00:15:02.165Z,14.80
2018-09-12T00:16:02.164Z,14.78
2018-09-12T00:17:02.164Z,14.73
2018-09-12T00:18:02.096Z,14.73
2018-09-12T00:19:02.212Z,14.73
2018-09-12T00:20:02.178Z,14.73
2018-09-12T00:21:02.264Z,14.71
2018-09-12T00:22:02.213Z,14.68
2018-09-12T00:23:02.187Z,14.64
2018-09-12T00:24:02.104Z,14.60
2018-09-12T00:25:02.097Z,14.55
2018-09-12T00:26:02.121Z,14.53
2018-09-12T00:27:02.149Z,14.53
2018-09-12T00:28:02.210Z,14.51
2018-09-12T00:29:02.150Z,14.46
2018-09-12T00:30:02.125Z,14.46
2018-09-12T00:31:02.222Z,14.42
2018-09-12T00:32:02.162Z,14.39
2018-09-12T00:33:02.243Z,14.35
2018-09-12T00:34:02.255Z,14.32
2018-09-12T00:35:02.153Z,14.28
2018-09-12T00:36:02.245Z,14.27
2018-09-12T00:37:02.206Z,14.24
2018-09-12T00:38:02.108Z,14.22
2018-09-12T00:39:02.130Z,14.22
2018-09-12T00:40:02.098Z,14.21
2018-09-12T00:41:02.193Z,14.20
2018-09-12T00:42:02.220Z,14.18
2018-09-12T00:43:02.336Z,14.24
2018-09-12T00:44:02.225Z,14.27
2018-09-12T00:45:02.221Z,14.31
2018-09-12T00:46:02.222Z,14.36
2018-09-12T00:47:02.115Z,14.39
2018-09-12T00:48:02.208Z,14.39
2018-09-12T00:49:02.193Z,14.39
2018-09-12T00:50:02.183Z,14.39
2018-09-12T00:51:02.112Z,14.42
2018-09-12T00:52:02.203Z,14.47
2018-09-12T00:53:02.155Z,14.51
2018-09-12T00:54:02.179Z,14.57
2018-09-12T00:55:02.145Z,14.60
2018-09-12T00:56:02.236Z,14.60
2018-09-12T00:57:02.206Z,14.61
2018-09-12T00:58:02.142Z,14.60
2018-09-12T00:59:02.127Z,14.57
2018-09-12T01:00:02.195Z,14.54
2018-09-12T01:01:02.125Z,14.53
2018-09-12T01:02:02.202Z,14.51
2018-09-12T01:03:02.197Z,14.51
2018-09-12T01:04:02.137Z,14.53
2018-09-12T01:05:02.132Z,14.50
2018-09-12T01:06:02.202Z,14.46
2018-09-12T01:07:02.203Z,14.44
2018-09-12T01:08:02.203Z,14.43
2018-09-12T01:09:02.143Z,14.43
2018-09-12T01:10:02.218Z,14.40
2018-09-12T01:11:02.146Z,14.39
2018-09-12T01:12:02.165Z,14.35
2018-09-12T01:13:02.175Z,14.32
2018-09-12T01:14:02.248Z,14.31
2018-09-12T01:15:02.147Z,14.31
2018-09-12T01:16:02.221Z,14.29
2018-09-12T01:17:02.239Z,14.28
2018-09-12T01:18:02.281Z,14.25
2018-09-12T01:19:02.216Z,14.21
2018-09-12T01:20:02.239Z,14.21
2018-09-12T01:21:02.139Z,14.17
2018-09-12T01:22:02.221Z,14.13
2018-09-12T01:23:02.243Z,14.14
2018-09-12T01:24:02.235Z,14.11
2018-09-12T01:25:02.140Z,14.06
2018-09-12T01:26:02.186Z,14.02
2018-09-12T01:27:02.200Z,14.02
2018-09-12T01:28:02.278Z,14.03
2018-09-12T01:29:02.217Z,13.98
2018-09-12T01:30:02.223Z,13.95
2018-09-12T01:31:02.219Z,13.89
2018-09-12T01:32:02.223Z,13.84
2018-09-12T01:33:02.150Z,13.81
2018-09-12T01:34:02.227Z,13.77
2018-09-12T01:35:02.156Z,13.72
2018-09-12T01:36:02.226Z,13.75
2018-09-12T01:37:02.224Z,13.72
2018-09-12T01:38:02.282Z,13.68
2018-09-12T01:39:02.227Z,13.62
2018-09-12T01:40:02.294Z,13.59
2018-09-12T01:41:02.133Z,13.53
2018-09-12T01:42:02.214Z,13.51
2018-09-12T01:43:02.231Z,13.47
2018-09-12T01:44:02.266Z,13.43
2018-09-12T01:45:02.245Z,13.42
2018-09-12T01:46:02.262Z,13.38
2018-09-12T01:47:02.222Z,13.34
2018-09-12T01:48:02.246Z,13.31
2018-09-12T01:49:02.237Z,13.31
2018-09-12T01:50:02.292Z,13.31
2018-09-12T01:51:02.276Z,13.29
2018-09-12T01:52:02.161Z,13.27
2018-09-12T01:53:02.184Z,13.28
2018-09-12T01:54:02.163Z,13.29
2018-09-12T01:55:02.182Z,13.35
2018-09-12T01:56:02.260Z,13.36
2018-09-12T01:57:02.269Z,13.38
2018-09-12T01:58:02.285Z,13.39
2018-09-12T01:59:02.146Z,13.46
2018-09-12T02:00:02.264Z,13.47
2018-09-12T02:01:02.285Z,13.46
2018-09-12T02:02:02.241Z,13.50
2018-09-12T02:03:02.185Z,13.51
2018-09-12T02:04:02.276Z,13.53
2018-09-12T02:05:02.212Z,13.51
2018-09-12T02:06:02.222Z,13.51
2018-09-12T02:07:02.187Z,13.51
2018-09-12T02:08:02.270Z,13.49
2018-09-12T02:09:02.185Z,13.49
2018-09-12T02:10:02.313Z,13.49
2018-09-12T02:11:02.258Z,13.45
2018-09-12T02:12:02.263Z,13.45
2018-09-12T02:13:02.188Z,13.45
2018-09-12T02:14:02.261Z,13.42
2018-09-12T02:15:02.191Z,13.39
2018-09-12T02:16:02.253Z,13.36
2018-09-12T02:17:02.203Z,13.34
2018-09-12T02:18:02.271Z,13.31
2018-09-12T02:19:02.201Z,13.32
2018-09-12T02:20:02.195Z,13.29
2018-09-12T02:21:02.323Z,13.28
2018-09-12T02:22:02.263Z,13.25
2018-09-12T02:23:02.206Z,13.24
2018-09-12T02:24:02.286Z,13.20
2018-09-12T02:25:02.328Z,13.17
2018-09-12T02:26:02.161Z,13.14
2018-09-12T02:27:02.328Z,13.13
2018-09-12T02:28:02.116Z,13.13
2018-09-12T02:29:02.203Z,13.14
2018-09-12T02:30:02.204Z,13.18
2018-09-12T02:31:02.227Z,13.21
2018-09-12T02:32:02.298Z,13.21
2018-09-12T02:33:02.271Z,13.20
2018-09-12T02:34:02.207Z,13.20
2018-09-12T02:35:02.183Z,13.16
2018-09-12T02:36:02.328Z,13.12
2018-09-12T02:37:02.305Z,13.13
2018-09-12T02:38:02.292Z,13.07
2018-09-12T02:39:02.199Z,13.06
2018-09-12T02:40:02.302Z,13.00
2018-09-12T02:41:02.229Z,12.96
2018-09-12T02:42:02.219Z,12.92
2018-09-12T02:43:02.237Z,12.87
2018-09-12T02:44:02.217Z,12.84
2018-09-12T02:45:02.252Z,12.82
2018-09-12T02:46:02.299Z,12.80
2018-09-12T02:47:02.183Z,12.76
2018-09-12T02:48:02.277Z,12.76
2018-09-12T02:49:02.239Z,12.73
2018-09-12T02:50:02.193Z,12.71
2018-09-12T02:51:02.313Z,12.69
2018-09-12T02:52:02.287Z,12.69
2018-09-12T02:53:02.281Z,12.68
2018-09-12T02:54:02.357Z,12.68
2018-09-12T02:55:02.186Z,12.66
2018-09-12T02:56:02.324Z,12.69
2018-09-12T02:57:02.248Z,12.69
2018-09-12T02:58:02.206Z,12.68
2018-09-12T02:59:02.261Z,12.66
2018-09-12T03:00:02.212Z,12.61
2018-09-12T03:01:02.231Z,12.60
2018-09-12T03:02:02.330Z,12.60
2018-09-12T03:03:02.265Z,12.61
2018-09-12T03:04:02.248Z,12.60
2018-09-12T03:05:02.292Z,12.58
2018-09-12T03:06:02.213Z,12.57
2018-09-12T03:07:02.258Z,12.55
2018-09-12T03:08:02.433Z,12.51
2018-09-12T03:09:02.334Z,12.50
2018-09-12T03:10:02.327Z,12.47
2018-09-12T03:11:02.331Z,12.44
2018-09-12T03:12:02.320Z,12.40
2018-09-12T03:13:02.287Z,12.39
2018-09-12T03:14:02.295Z,12.37
2018-09-12T03:15:02.259Z,12.36
2018-09-12T03:16:02.277Z,12.35
2018-09-12T03:17:02.324Z,12.33
2018-09-12T03:18:02.359Z,12.32
2018-09-12T03:19:02.323Z,12.31
2018-09-12T03:20:02.268Z,12.31
2018-09-12T03:21:02.417Z,12.32
2018-09-12T03:22:02.203Z,12.32
2018-09-12T03:23:02.331Z,12.32
2018-09-12T03:24:02.332Z,12.33
2018-09-12T03:25:02.226Z,12.33
2018-09-12T03:26:02.350Z,12.33
2018-09-12T03:27:02.227Z,12.32
2018-09-12T03:28:02.273Z,12.32
2018-09-12T03:29:02.282Z,12.33
2018-09-12T03:30:02.330Z,12.31
2018-09-12T03:31:02.201Z,12.31
2018-09-12T03:32:02.326Z,12.28
2018-09-12T03:33:02.333Z,12.25
2018-09-12T03:34:02.260Z,12.21
2018-09-12T03:35:02.272Z,12.18
2018-09-12T03:36:02.245Z,12.18
2018-09-12T03:37:02.346Z,12.20
2018-09-12T03:38:02.274Z,12.18
2018-09-12T03:39:02.213Z,12.18
2018-09-12T03:40:02.325Z,12.13
2018-09-12T03:41:02.326Z,12.16
2018-09-12T03:42:02.389Z,12.16
2018-09-12T03:43:02.281Z,12.14
2018-09-12T03:44:02.271Z,12.14
2018-09-12T03:45:02.271Z,12.16
2018-09-12T03:46:02.338Z,12.13
2018-09-12T03:47:02.282Z,12.10
2018-09-12T03:48:02.369Z,12.08
2018-09-12T03:49:02.253Z,12.08
2018-09-12T03:50:02.257Z,12.08
2018-09-12T03:51:02.334Z,12.06
2018-09-12T03:52:02.285Z,12.03
2018-09-12T03:53:02.220Z,12.01
2018-09-12T03:54:02.275Z,12.01
2018-09-12T03:55:02.341Z,11.98
2018-09-12T03:56:02.340Z,11.98
2018-09-12T03:57:02.227Z,11.99
2018-09-12T03:58:02.337Z,12.01
2018-09-12T03:59:02.268Z,12.05
2018-09-12T04:00:02.369Z,12.05
2018-09-12T04:01:02.339Z,12.08
2018-09-12T04:02:02.252Z,12.05
2018-09-12T04:03:02.332Z,12.02
2018-09-12T04:04:02.363Z,11.99
2018-09-12T04:05:02.392Z,11.98
2018-09-12T04:06:02.302Z,11.97
2018-09-12T04:07:02.340Z,11.97
2018-09-12T04:08:02.307Z,11.97
2018-09-12T04:09:02.397Z,11.94
2018-09-12T04:10:02.265Z,11.92
2018-09-12T04:11:02.330Z,11.91
2018-09-12T04:12:02.334Z,11.89
2018-09-12T04:13:02.265Z,11.89
2018-09-12T04:14:02.335Z,12.10
2018-09-12T04:15:02.336Z,12.21
2018-09-12T04:16:02.263Z,12.26
2018-09-12T04:17:02.445Z,12.35
2018-09-12T04:18:02.397Z,12.39
2018-09-12T04:19:02.343Z,12.43
2018-09-12T04:20:02.270Z,12.47
2018-09-12T04:21:02.296Z,12.51
2018-09-12T04:22:02.338Z,12.55
2018-09-12T04:23:02.272Z,12.57
2018-09-12T04:24:02.358Z,12.61
2018-09-12T04:25:02.276Z,12.68
2018-09-12T04:26:02.344Z,12.71
2018-09-12T04:27:02.271Z,12.69
2018-09-12T04:28:02.279Z,12.72
2018-09-12T04:29:02.352Z,12.71
2018-09-12T04:30:02.377Z,12.69
2018-09-12T04:31:02.351Z,12.66
2018-09-12T04:32:02.295Z,12.61
2018-09-12T04:33:02.324Z,12.62
2018-09-12T04:34:02.269Z,12.60
2018-09-12T04:35:02.340Z,12.54
2018-09-12T04:36:02.395Z,12.58
2018-09-12T04:37:02.282Z,12.66
2018-09-12T04:38:02.301Z,12.75
2018-09-12T04:39:02.359Z,12.75
2018-09-12T04:40:02.294Z,12.72
2018-09-12T04:41:02.341Z,12.73
2018-09-12T04:42:02.372Z,12.72
2018-09-12T04:43:02.425Z,12.71
2018-09-12T04:44:02.358Z,12.68
2018-09-12T04:45:02.388Z,12.66
2018-09-12T04:46:02.449Z,12.61
2018-09-12T04:47:02.285Z,12.58
2018-09-12T04:48:02.364Z,12.54
2018-09-12T04:49:02.369Z,12.51
2018-09-12T04:50:02.369Z,12.51
2018-09-12T04:51:02.294Z,12.47
2018-09-12T04:52:02.410Z,12.43
2018-09-12T04:53:02.295Z,12.40
2018-09-12T04:54:02.293Z,12.39
2018-09-12T04:55:02.297Z,12.35
2018-09-12T04:56:02.364Z,12.29
2018-09-12T04:57:02.296Z,12.25
2018-09-12T04:58:02.365Z,12.21
2018-09-12T04:59:02.295Z,12.18
2018-09-12T05:00:02.370Z,12.18
2018-09-12T05:01:02.397Z,12.16
2018-09-12T05:02:02.387Z,12.10
2018-09-12T05:03:02.311Z,12.06
2018-09-12T05:04:02.394Z,12.03
2018-09-12T05:05:02.429Z,12.03
2018-09-12T05:06:02.317Z,12.03
2018-09-12T05:07:02.379Z,12.01
2018-09-12T05:08:02.315Z,11.98
2018-09-12T05:09:02.314Z,11.98
2018-09-12T05:10:02.331Z,11.95
2018-09-12T05:11:02.305Z,11.91
2018-09-12T05:12:02.310Z,11.89
2018-09-12T05:13:02.381Z,11.84
2018-09-12T05:14:02.314Z,11.82
2018-09-12T05:15:02.304Z,11.80
2018-09-12T05:16:02.445Z,11.78
2018-09-12T05:17:02.303Z,11.76
2018-09-12T05:18:02.298Z,11.76
2018-09-12T05:19:02.302Z,11.78
2018-09-12T05:20:02.445Z,11.78
2018-09-12T05:21:02.357Z,11.76
2018-09-12T05:22:02.398Z,11.73
2018-09-12T05:23:02.321Z,11.73
2018-09-12T05:24:02.349Z,11.72
2018-09-12T05:25:02.306Z,11.72
2018-09-12T05:26:02.340Z,11.71
2018-09-12T05:27:02.308Z,11.68
2018-09-12T05:28:02.329Z,11.65
2018-09-12T05:29:02.425Z,11.64
2018-09-12T05:30:02.353Z,11.67
2018-09-12T05:31:02.361Z,11.68
2018-09-12T05:32:02.458Z,11.64
2018-09-12T05:33:02.318Z,11.61
2018-09-12T05:34:02.369Z,11.61
2018-09-12T05:35:02.315Z,11.61
2018-09-12T05:36:02.341Z,11.61
2018-09-12T05:37:02.427Z,11.61
2018-09-12T05:38:02.425Z,11.65
2018-09-12T05:39:02.422Z,11.67
2018-09-12T05:40:02.370Z,11.67
2018-09-12T05:41:02.340Z,11.67
2018-09-12T05:42:02.334Z,11.69
2018-09-12T05:43:02.404Z,11.69
2018-09-12T05:44:02.414Z,11.69
2018-09-12T05:45:02.349Z,11.69
2018-09-12T05:46:02.405Z,11.73
2018-09-12T05:47:02.463Z,11.75
2018-09-12T05:48:02.411Z,11.75
2018-09-12T05:49:02.292Z,11.76
2018-09-12T05:50:02.460Z,11.82
2018-09-12T05:51:02.410Z,11.89
2018-09-12T05:52:02.347Z,11.99
2018-09-12T05:53:02.409Z,12.12
2018-09-12T05:54:02.360Z,12.28
2018-09-12T05:55:02.420Z,12.43
2018-09-12T05:56:02.355Z,12.57
2018-09-12T05:57:02.414Z,12.71
2018-09-12T05:58:02.414Z,12.80
2018-09-12T05:59:02.414Z,12.91
2018-09-12T06:00:02.321Z,13.09
2018-09-12T06:01:02.379Z,13.28
2018-09-12T06:02:02.420Z,13.34
2018-09-12T06:03:02.387Z,13.46
2018-09-12T06:04:02.361Z,13.64
2018-09-12T06:05:02.388Z,13.76
2018-09-12T06:06:02.482Z,13.93
2018-09-12T06:07:02.493Z,14.13
2018-09-12T06:08:02.418Z,14.22
2018-09-12T06:09:02.337Z,14.27
2018-09-12T06:10:02.357Z,14.32
2018-09-12T06:11:02.426Z,14.49
2018-09-12T06:12:02.427Z,14.60
2018-09-12T06:13:02.426Z,14.75
2018-09-12T06:14:02.447Z,14.83
2018-09-12T06:15:02.433Z,14.79
2018-09-12T06:16:02.371Z,14.78
2018-09-12T06:17:02.435Z,14.78
2018-09-12T06:18:02.435Z,14.83
2018-09-12T06:19:02.428Z,14.91
2018-09-12T06:20:02.426Z,15.04
2018-09-12T06:21:02.490Z,15.10
2018-09-12T06:22:02.339Z,15.15
2018-09-12T06:23:02.422Z,15.21
2018-09-12T06:24:02.421Z,15.28
2018-09-12T06:25:02.430Z,15.42
2018-09-12T06:26:02.355Z,15.53
2018-09-12T06:27:02.354Z,15.66
2018-09-12T06:28:02.429Z,15.80
2018-09-12T06:29:02.428Z,15.94
2018-09-12T06:30:02.436Z,16.06
2018-09-12T06:31:02.360Z,16.25
2018-09-12T06:32:02.361Z,16.55
2018-09-12T06:33:02.342Z,16.76
2018-09-12T06:34:02.421Z,16.88
2018-09-12T06:35:02.327Z,17.01
2018-09-12T06:36:02.430Z,17.12
2018-09-12T06:37:02.395Z,17.24
2018-09-12T06:38:02.433Z,17.33
2018-09-12T06:39:02.370Z,17.46
2018-09-12T06:40:02.473Z,17.65
2018-09-12T06:41:02.378Z,17.77
2018-09-12T06:42:02.410Z,17.89
2018-09-12T06:43:02.467Z,17.95
2018-09-12T06:44:02.443Z,18.05
2018-09-12T06:45:02.467Z,18.16
2018-09-12T06:46:02.505Z,18.24
2018-09-12T06:47:02.481Z,18.40
2018-09-12T06:48:02.478Z,18.55
2018-09-12T06:49:02.387Z,18.64
2018-09-12T06:50:02.371Z,18.61
2018-09-12T06:51:02.394Z,18.64
2018-09-12T06:52:02.402Z,18.75
2018-09-12T06:53:02.442Z,18.80
2018-09-12T06:54:02.361Z,18.91
2018-09-12T06:55:02.445Z,19.01
2018-09-12T06:56:02.447Z,18.97
2018-09-12T06:57:02.448Z,18.95
2018-09-12T06:58:02.505Z,18.99
2018-09-12T06:59:02.371Z,19.12
2018-09-12T07:00:02.417Z,19.31
2018-09-12T07:01:02.455Z,19.46
2018-09-12T07:02:02.466Z,19.65
2018-09-12T07:03:02.516Z,19.87
2018-09-12T07:04:02.364Z,20.03
2018-09-12T07:05:02.464Z,20.10
2018-09-12T07:06:02.361Z,20.13
2018-09-12T07:07:02.427Z,20.32
2018-09-12T07:08:02.519Z,20.36
2018-09-12T07:09:02.383Z,20.28
2018-09-12T07:10:02.409Z,20.46
2018-09-12T07:11:02.462Z,20.54
2018-09-12T07:12:02.389Z,20.64
2018-09-12T07:13:02.493Z,20.75
2018-09-12T07:14:02.432Z,20.87
2018-09-12T07:15:02.430Z,21.02
2018-09-12T07:16:02.485Z,21.16
2018-09-12T07:17:02.494Z,21.22
2018-09-12T07:18:02.471Z,21.28
2018-09-12T07:19:02.497Z,21.31
2018-09-12T07:20:02.481Z,21.35
2018-09-12T07:21:02.528Z,21.49
2018-09-12T07:22:02.472Z,21.57
2018-09-12T07:23:02.410Z,21.56
2018-09-12T07:24:02.428Z,21.49
2018-09-12T07:25:02.459Z,21.67
2018-09-12T07:26:02.499Z,21.86
2018-09-12T07:27:02.448Z,21.96
2018-09-12T07:28:02.502Z,21.98
2018-09-12T07:29:02.402Z,22.10
2018-09-12T07:30:02.491Z,22.17
2018-09-12T07:31:02.481Z,22.20
2018-09-12T07:32:02.477Z,22.24
2018-09-12T07:33:02.436Z,22.32
2018-09-12T07:34:02.403Z,22.38
2018-09-12T07:35:02.517Z,22.46
2018-09-12T07:36:02.558Z,22.46
2018-09-12T07:37:02.480Z,22.30
2018-09-12T07:38:02.506Z,22.27
2018-09-12T07:39:02.419Z,22.21
2018-09-12T07:40:02.495Z,22.23
2018-09-12T07:41:02.431Z,22.34
2018-09-12T07:42:02.497Z,22.39
2018-09-12T07:43:02.421Z,22.36
2018-09-12T07:44:02.423Z,22.39
2018-09-12T07:45:02.494Z,22.56
2018-09-12T07:46:02.425Z,22.76
2018-09-12T07:47:02.421Z,22.93
2018-09-12T07:48:02.425Z,22.98
2018-09-12T07:49:02.557Z,23.13
2018-09-12T07:50:02.426Z,23.15
2018-09-12T07:51:02.484Z,23.15
2018-09-12T07:52:02.425Z,23.11
2018-09-12T07:53:02.489Z,23.22
2018-09-12T07:54:02.489Z,23.39
2018-09-12T07:55:02.493Z,23.58
2018-09-12T07:56:02.516Z,23.78
2018-09-12T07:57:02.439Z,23.90
2018-09-12T07:58:02.454Z,23.97
2018-09-12T07:59:02.485Z,23.87
2018-09-12T08:00:02.490Z,23.96
2018-09-12T08:01:02.572Z,24.04
2018-09-12T08:02:02.496Z,24.12
2018-09-12T08:03:02.444Z,24.15
2018-09-12T08:04:02.434Z,24.25
2018-09-12T08:05:02.463Z,24.41
2018-09-12T08:06:02.511Z,24.56
2018-09-12T08:07:02.506Z,24.70
2018-09-12T08:08:02.513Z,24.81
2018-09-12T08:09:02.535Z,24.95
2018-09-12T08:10:02.511Z,25.11
2018-09-12T08:11:02.443Z,25.20
2018-09-12T08:12:02.518Z,25.17
2018-09-12T08:13:02.521Z,25.19
2018-09-12T08:14:02.568Z,25.12
2018-09-12T08:15:02.444Z,25.00
2018-09-12T08:16:02.516Z,24.61
2018-09-12T08:17:02.476Z,24.44
2018-09-12T08:18:02.478Z,24.36
2018-09-12T08:19:02.636Z,24.45
2018-09-12T08:20:02.518Z,24.41
2018-09-12T08:21:02.555Z,24.53
2018-09-12T08:22:02.534Z,24.64
2018-09-12T08:23:02.452Z,24.81
2018-09-12T08:24:02.496Z,24.89
2018-09-12T08:25:02.440Z,24.89
2018-09-12T08:26:02.497Z,24.90
2018-09-12T08:27:02.552Z,24.72
2018-09-12T08:28:02.502Z,24.63
2018-09-12T08:29:02.522Z,24.48
2018-09-12T08:30:02.462Z,24.47
2018-09-12T08:31:02.524Z,24.38
2018-09-12T08:32:02.524Z,24.41
2018-09-12T08:33:02.454Z,24.44
2018-09-12T08:34:02.464Z,24.25
2018-09-12T08:35:02.457Z,24.36
2018-09-12T08:36:02.534Z,24.48
2018-09-12T08:37:02.529Z,24.59
2018-09-12T08:38:02.534Z,24.59
2018-09-12T08:39:02.527Z,24.57
2018-09-12T08:40:02.469Z,24.49
2018-09-12T08:41:02.516Z,24.47
2018-09-12T08:42:02.528Z,24.51
2018-09-12T08:43:02.431Z,24.66
2018-09-12T08:44:02.526Z,24.75
2018-09-12T08:45:02.455Z,24.68
2018-09-12T08:46:02.526Z,24.77
2018-09-12T08:47:02.523Z,24.93
2018-09-12T08:48:02.453Z,25.11
2018-09-12T08:49:02.476Z,25.40
2018-09-12T08:50:02.537Z,25.48
2018-09-12T08:51:02.467Z,25.35
2018-09-12T08:52:02.543Z,25.31
2018-09-12T08:53:02.652Z,25.34
2018-09-12T08:54:02.482Z,25.24
2018-09-12T08:55:02.542Z,25.11
2018-09-12T08:56:02.548Z,25.15
2018-09-12T08:57:02.492Z,25.04
2018-09-12T08:58:02.478Z,25.09
2018-09-12T08:59:02.545Z,25.23
2018-09-12T09:00:02.535Z,25.38
2018-09-12T09:01:02.459Z,25.42
2018-09-12T09:02:02.507Z,25.67
2018-09-12T09:03:02.459Z,25.75
2018-09-12T09:04:02.508Z,25.95
2018-09-12T09:05:02.535Z,26.08
2018-09-12T09:06:02.546Z,26.30
2018-09-12T09:07:02.540Z,26.36
2018-09-12T09:08:02.468Z,26.33
2018-09-12T09:09:02.465Z,26.30
2018-09-12T09:10:02.570Z,26.08
2018-09-12T09:11:02.452Z,25.95
2018-09-12T09:12:02.551Z,25.95
2018-09-12T09:13:02.580Z,26.00
2018-09-12T09:14:02.507Z,25.93
2018-09-12T09:15:02.479Z,25.81
2018-09-12T09:16:02.471Z,25.78
2018-09-12T09:17:02.528Z,25.81
2018-09-12T09:18:02.552Z,25.88
2018-09-12T09:19:02.482Z,26.03
2018-09-12T09:20:02.554Z,26.10
2018-09-12T09:22:02.488Z,25.92
2018-09-12T09:23:02.566Z,25.85
2018-09-12T09:24:02.489Z,25.74
2018-09-12T09:25:02.498Z,25.70
2018-09-12T09:26:02.560Z,25.53
2018-09-12T09:27:02.499Z,25.42
2018-09-12T09:28:02.561Z,25.42
2018-09-12T09:29:02.576Z,25.42
2018-09-12T09:30:02.570Z,25.45
2018-09-12T09:31:02.481Z,25.30
2018-09-12T09:32:02.493Z,25.26
2018-09-12T09:33:02.467Z,25.35
2018-09-12T09:34:02.484Z,25.51
2018-09-12T09:35:02.816Z,25.70
2018-09-12T09:36:02.468Z,25.77
2018-09-12T09:37:02.558Z,25.80
2018-09-12T09:38:02.487Z,25.73
2018-09-12T09:39:02.494Z,25.89
2018-09-12T09:40:02.565Z,25.91
2018-09-12T09:41:02.630Z,25.97
2018-09-12T09:42:02.508Z,26.07
2018-09-12T09:43:02.505Z,26.03
2018-09-12T09:44:02.631Z,26.06
2018-09-12T09:45:02.505Z,26.07
2018-09-12T09:46:02.515Z,26.04
2018-09-12T09:47:02.577Z,26.04
2018-09-12T09:48:02.707Z,25.92
2018-09-12T09:49:02.509Z,25.99
2018-09-12T09:50:02.526Z,26.10
2018-09-12T09:51:02.570Z,26.22
2018-09-12T09:52:02.562Z,26.45
2018-09-12T09:53:02.543Z,26.67
2018-09-12T09:54:02.610Z,26.67
2018-09-12T09:55:02.489Z,26.64
2018-09-12T09:56:02.556Z,26.64
2018-09-12T09:57:02.608Z,26.79
2018-09-12T09:58:02.465Z,26.89
2018-09-12T09:59:02.603Z,26.92
2018-09-12T10:00:02.543Z,27.07
2018-09-12T10:01:02.617Z,27.26
2018-09-12T10:02:02.503Z,26.82
2018-09-12T10:03:02.588Z,26.55
2018-09-12T10:04:02.546Z,26.71
2018-09-12T10:05:02.548Z,26.67
2018-09-12T10:06:02.607Z,26.59
2018-09-12T10:07:02.590Z,26.85
2018-09-12T10:08:02.617Z,26.96
2018-09-12T10:09:02.547Z,27.10
2018-09-12T10:10:02.552Z,27.07
2018-09-12T10:11:02.598Z,27.03
2018-09-12T10:12:02.603Z,27.17
2018-09-12T10:13:02.604Z,27.06
2018-09-12T10:14:02.533Z,26.85
2018-09-12T10:15:02.600Z,26.72
2018-09-12T10:16:02.594Z,26.52
2018-09-12T10:17:02.534Z,26.45
2018-09-12T10:18:02.534Z,26.29
2018-09-12T10:19:02.601Z,26.22
2018-09-12T10:20:02.532Z,26.13
2018-09-12T10:21:02.598Z,25.92
2018-09-12T10:22:02.622Z,25.81
2018-09-12T10:23:02.634Z,25.93
2018-09-12T10:24:02.607Z,26.08
2018-09-12T10:25:02.626Z,26.22
2018-09-12T10:26:02.508Z,26.38
2018-09-12T10:27:02.579Z,26.59
2018-09-12T10:28:02.637Z,26.74
2018-09-12T10:29:02.580Z,26.84
2018-09-12T10:30:02.635Z,26.74
2018-09-12T10:31:02.533Z,26.54
2018-09-12T10:32:02.586Z,26.56
2018-09-12T10:33:02.549Z,26.64
2018-09-12T10:34:02.599Z,26.77
2018-09-12T10:35:02.598Z,26.74
2018-09-12T10:36:02.545Z,26.72
2018-09-12T10:37:02.503Z,26.79
2018-09-12T10:38:02.545Z,26.99
2018-09-12T10:39:02.481Z,27.11
2018-09-12T10:40:02.539Z,27.04
2018-09-12T10:41:02.524Z,27.12
2018-09-12T10:42:02.515Z,27.14
2018-09-12T10:43:02.515Z,27.14
2018-09-12T10:44:02.531Z,27.26
2018-09-12T10:45:02.643Z,27.48
2018-09-12T10:46:02.659Z,27.51
2018-09-12T10:47:02.546Z,27.63
2018-09-12T10:48:02.543Z,27.62
2018-09-12T10:49:02.608Z,27.51
2018-09-12T10:50:02.552Z,27.40
2018-09-12T10:51:02.541Z,27.36
2018-09-12T10:52:02.618Z,27.29
2018-09-12T10:53:02.562Z,27.47
2018-09-12T10:54:02.632Z,27.52
2018-09-12T10:55:02.543Z,27.71
2018-09-12T10:56:02.608Z,27.71
2018-09-12T10:57:02.550Z,27.88
2018-09-12T10:58:02.659Z,28.06
2018-09-12T10:59:02.602Z,28.03
2018-09-12T11:00:02.584Z,28.07
2018-09-12T11:01:02.614Z,28.14
2018-09-12T11:02:02.550Z,28.00
2018-09-12T11:03:02.614Z,28.04
2018-09-12T11:04:02.547Z,28.07
2018-09-12T11:05:02.555Z,28.03
2018-09-12T11:06:02.627Z,28.02
2018-09-12T11:07:02.553Z,27.98
2018-09-12T11:08:02.621Z,27.70
2018-09-12T11:09:02.549Z,27.51
2018-09-12T11:10:02.627Z,27.55
2018-09-12T11:11:02.654Z,27.55
2018-09-12T11:12:02.634Z,27.71
2018-09-12T11:13:02.636Z,27.85
2018-09-12T11:14:02.614Z,27.92
2018-09-12T11:15:02.651Z,28.10
2018-09-12T11:16:02.573Z,28.15
2018-09-12T11:17:02.665Z,27.93
2018-09-12T11:18:02.641Z,27.55
2018-09-12T11:19:02.676Z,27.44
2018-09-12T11:20:02.664Z,27.47
2018-09-12T11:21:02.660Z,27.47
2018-09-12T11:22:02.652Z,27.43
2018-09-12T11:23:02.659Z,27.08
2018-09-12T11:24:02.658Z,27.03
2018-09-12T11:25:02.703Z,27.21
2018-09-12T11:26:02.562Z,27.28
2018-09-12T11:27:02.563Z,27.34
2018-09-12T11:28:02.605Z,27.29
2018-09-12T11:29:02.584Z,27.23
2018-09-12T11:30:02.566Z,27.12
2018-09-12T11:31:02.655Z,27.25
2018-09-12T11:32:02.625Z,27.37
2018-09-12T11:33:02.610Z,27.46
2018-09-12T11:34:02.567Z,27.46
2018-09-12T11:35:02.646Z,27.40
2018-09-12T11:36:02.658Z,27.15
2018-09-12T11:37:02.658Z,26.82
2018-09-12T11:38:02.610Z,26.62
2018-09-12T11:39:02.556Z,26.62
2018-09-12T11:40:02.585Z,26.55
2018-09-12T11:41:02.680Z,26.51
2018-09-12T11:42:02.695Z,26.49
2018-09-12T11:43:02.638Z,26.58
2018-09-12T11:44:02.615Z,26.71
2018-09-12T11:45:02.679Z,26.72
2018-09-12T11:46:02.623Z,26.72
2018-09-12T11:47:02.717Z,26.72
2018-09-12T11:48:02.639Z,26.62
2018-09-12T11:49:02.646Z,26.70
2018-09-12T11:50:02.725Z,26.88
2018-09-12T11:51:02.600Z,27.01
2018-09-12T11:52:02.667Z,27.14
2018-09-12T11:53:02.605Z,27.33
2018-09-12T11:54:02.669Z,27.50
2018-09-12T11:55:02.597Z,27.68
2018-09-12T11:56:02.674Z,27.66
2018-09-12T11:57:02.675Z,27.77
2018-09-12T11:58:02.679Z,27.68
2018-09-12T11:59:02.612Z,27.61
2018-09-12T12:00:02.677Z,27.50
2018-09-12T12:01:02.673Z,27.62
2018-09-12T12:02:02.653Z,27.73
2018-09-12T12:03:02.569Z,27.95
2018-09-12T12:04:02.631Z,28.07
2018-09-12T12:05:02.669Z,27.99
2018-09-12T12:06:02.698Z,28.00
2018-09-12T12:07:02.631Z,27.99
2018-09-12T12:08:02.684Z,28.17
2018-09-12T12:09:02.640Z,28.32
2018-09-12T12:10:02.676Z,28.31
2018-09-12T12:11:02.675Z,28.07
2018-09-12T12:12:02.632Z,28.03
2018-09-12T12:13:02.679Z,28.04
2018-09-12T12:14:02.611Z,28.09
2018-09-12T12:15:02.618Z,28.06
2018-09-12T12:16:02.739Z,28.10
2018-09-12T12:17:02.614Z,28.13
2018-09-12T12:18:02.618Z,28.33
2018-09-12T12:19:02.685Z,28.49
2018-09-12T12:20:02.684Z,28.42
2018-09-12T12:21:02.616Z,28.58
2018-09-12T12:22:02.685Z,28.91
2018-09-12T12:23:02.656Z,29.01
2018-09-12T12:24:02.704Z,29.08
2018-09-12T12:25:02.753Z,29.09
2018-09-12T12:26:02.623Z,28.91
2018-09-12T12:27:02.624Z,28.73
2018-09-12T12:28:02.700Z,28.76
2018-09-12T12:29:02.626Z,28.75
2018-09-12T12:30:02.646Z,28.80
2018-09-12T12:31:02.688Z,29.12
2018-09-12T12:32:02.591Z,29.40
2018-09-12T12:33:02.712Z,29.57
2018-09-12T12:34:02.690Z,29.64
2018-09-12T12:35:02.655Z,29.64
2018-09-12T12:36:02.652Z,29.55
2018-09-12T12:37:02.701Z,29.23
2018-09-12T12:38:02.718Z,28.90
2018-09-12T12:39:02.743Z,28.99
2018-09-12T12:40:02.698Z,28.93
2018-09-12T12:41:02.683Z,28.88
2018-09-12T12:42:02.737Z,29.08
2018-09-12T12:43:02.763Z,29.17
2018-09-12T12:44:02.622Z,29.24
2018-09-12T12:45:02.619Z,29.06
2018-09-12T12:46:02.728Z,29.04
2018-09-12T12:47:02.720Z,29.04
2018-09-12T12:48:02.625Z,28.97
2018-09-12T12:49:02.709Z,28.80
2018-09-12T12:50:02.668Z,28.69
2018-09-12T12:51:02.687Z,28.62
2018-09-12T12:52:02.698Z,28.64
2018-09-12T12:53:02.628Z,28.72